Time;durP1;ratioP1;P1;durP2;ratioP2;P2;SDS_P1;SDS_P2;PMS_P1;PMS_P2;Temp;Humidity;BMP_temperature;BMP_pressure;BME280_temperature;BME280_humidity;BME280_pressure;Samples;Min_cycle;Max_cycle;Signal;HPM_P1;HPM_P2
2022/10/06 00:09:49;;;;;;;4.70;1.90;;;10.50;99.90;;;;;;20880094;28;20041;-77
2022/10/06 00:19:50;;;;;;;3.37;1.83;;;10.50;99.90;;;;;;20885394;28;20095;-77
2022/10/06 00:29:51;;;;;;;6.43;1.57;;;10.30;99.90;;;;;;20922469;28;20408;-77
2022/10/06 00:39:52;;;;;;;6.73;1.87;;;10.30;99.90;;;;;;20847004;28;20132;-77
2022/10/06 00:49:54;;;;;;;14.17;1.90;;;10.10;99.90;;;;;;20877058;28;20030;-77
2022/10/06 00:59:56;;;;;;;8.52;1.67;;;10.10;99.90;;;;;;20919329;28;20045;-77
2022/10/06 01:09:57;;;;;;;4.47;1.85;;;10.00;99.90;;;;;;20901208;28;20047;-77
2022/10/06 01:20:07;;;;;;;3.60;1.70;;;9.70;99.90;;;;;;20919437;28;20175;-76
2022/10/06 01:30:15;;;;;;;7.25;1.90;;;9.70;99.90;;;;;;20902215;28;20064;-77
2022/10/06 01:40:16;;;;;;;1.92;1.70;;;9.80;99.90;;;;;;20901192;28;20720;-77
2022/10/06 01:50:16;;;;;;;4.47;1.87;;;9.60;99.90;;;;;;20899163;28;20107;-77
2022/10/06 02:00:18;;;;;;;2.43;2.00;;;9.40;99.90;;;;;;20897255;28;20052;-77
2022/10/06 02:10:20;;;;;;;8.25;1.92;;;9.50;99.90;;;;;;20897963;28;20434;-77
2022/10/06 02:20:22;;;;;;;1.88;1.40;;;9.50;99.90;;;;;;20900180;28;20549;-77
2022/10/06 02:30:23;;;;;;;6.13;1.50;;;9.50;99.90;;;;;;20897891;28;20091;-77
2022/10/06 02:40:26;;;;;;;7.28;1.73;;;9.40;99.90;;;;;;20882359;28;20531;-77
2022/10/06 02:50:26;;;;;;;3.03;1.87;;;9.20;99.90;;;;;;20894719;28;20036;-77
2022/10/06 03:00:27;;;;;;;7.37;2.90;;;8.90;99.90;;;;;;20892063;28;20059;-77
2022/10/06 03:10:28;;;;;;;13.63;4.40;;;8.90;99.90;;;;;;20909086;28;20115;-77
2022/10/06 03:20:29;;;;;;;8.33;3.03;;;8.80;99.90;;;;;;20892025;28;20041;-77
2022/10/06 03:30:30;;;;;;;5.83;3.13;;;8.80;99.90;;;;;;20909005;28;20526;-77
2022/10/06 03:40:31;;;;;;;11.90;3.87;;;8.60;99.90;;;;;;20906617;28;20523;-77
2022/10/06 03:50:32;;;;;;;11.77;3.53;;;8.40;99.90;;;;;;20928297;28;20500;-78
2022/10/06 04:00:34;;;;;;;11.48;4.40;;;8.40;99.90;;;;;;20917465;28;20037;-78
2022/10/06 04:10:35;;;;;;;11.40;3.80;;;8.40;99.90;;;;;;20915820;28;20496;-78
2022/10/06 04:20:36;;;;;;;11.07;3.83;;;8.30;99.90;;;;;;20904934;28;20037;-78
2022/10/06 04:30:37;;;;;;;10.05;3.50;;;8.40;99.90;;;;;;20904319;28;20036;-77
2022/10/06 04:40:38;;;;;;;19.23;4.20;;;8.30;99.90;;;;;;20901479;28;20123;-77
2022/10/06 04:50:39;;;;;;;10.80;4.10;;;8.20;99.90;;;;;;20900212;28;20697;-78
2022/10/06 05:00:44;;;;;;;16.98;5.30;;;8.20;99.90;;;;;;20899796;28;20045;-78
2022/10/06 05:10:45;;;;;;;10.10;3.47;;;8.20;99.90;;;;;;20899160;28;20048;-78
2022/10/06 05:20:58;;;;;;;12.97;4.83;;;8.10;99.90;;;;;;20916690;28;20041;-77
2022/10/06 05:31:00;;;;;;;9.70;4.13;;;8.00;99.90;;;;;;20897513;28;20450;-77
2022/10/06 05:41:07;;;;;;;6.95;2.63;;;8.00;99.90;;;;;;20896185;28;20071;-77
2022/10/06 05:51:08;;;;;;;6.13;2.75;;;8.00;99.90;;;;;;20913861;28;20642;-77
2022/10/06 06:01:13;;;;;;;6.43;2.85;;;8.10;99.90;;;;;;20900829;28;20119;-78
2022/10/06 06:11:14;;;;;;;7.72;2.55;;;8.40;99.90;;;;;;20898203;28;20037;-77
2022/10/06 06:21:16;;;;;;;4.37;2.03;;;9.80;99.90;;;;;;20926376;28;20037;-77
2022/10/06 06:31:28;;;;;;;;;;;10.40;99.90;;;;;;20909009;28;20041;-78
2022/10/06 06:41:31;;;;;;;3.60;2.40;;;11.10;99.90;;;;;;20904617;28;20423;-78
2022/10/06 06:51:53;;;;;;;7.72;2.88;;;11.70;99.90;;;;;;20911695;28;20048;-78
2022/10/06 07:01:57;;;;;;;6.20;3.10;;;12.40;99.90;;;;;;20908740;28;20041;-78
2022/10/06 07:11:59;;;;;;;9.93;3.20;;;12.30;99.90;;;;;;20912229;28;20037;-77
2022/10/06 07:32:25;;;;;;;6.25;4.13;;;14.20;99.90;;;;;;20851785;28;20073;-77
2022/10/06 07:42:26;;;;;;;7.15;4.55;;;13.40;99.90;;;;;;20855851;28;20033;-76
2022/10/06 07:52:27;;;;;;;10.70;5.43;;;12.80;99.90;;;;;;20884704;28;20140;-76
2022/10/06 08:02:28;;;;;;;9.73;6.53;;;12.90;99.90;;;;;;20825078;28;20558;-77
2022/10/06 08:12:32;;;;;;;8.90;5.27;;;13.00;99.90;;;;;;20866475;23;20458;-77
2022/10/06 08:22:34;;;;;;;19.13;9.90;;;13.20;99.90;;;;;;21091631;28;20049;-78
2022/10/06 08:32:36;;;;;;;8.57;5.50;;;13.40;99.90;;;;;;21072773;28;20048;-78
2022/10/06 08:42:43;;;;;;;9.50;5.63;;;13.60;99.90;;;;;;21100898;28;20070;-76
2022/10/06 08:53:05;;;;;;;10.20;6.72;;;13.50;99.90;;;;;;21084533;28;20036;-75
2022/10/06 09:03:12;;;;;;;;;;;13.60;99.90;;;;;;21065416;28;20036;-77
2022/10/06 09:13:27;;;;;;;11.57;6.80;;;13.60;99.90;;;;;;21082449;28;19915;-76
2022/10/06 09:23:46;;;;;;;10.30;6.32;;;13.90;99.90;;;;;;21012232;28;20102;-75
2022/10/06 09:33:50;;;;;;;15.05;6.30;;;14.10;99.90;;;;;;20997445;28;20529;-77
2022/10/06 09:43:57;;;;;;;15.43;6.55;;;14.60;99.90;;;;;;20996697;28;20121;-76
2022/10/06 09:54:09;;;;;;;13.15;7.25;;;15.10;99.90;;;;;;20994152;28;20047;-77
2022/10/06 10:04:19;;;;;;;12.93;5.32;;;15.40;99.90;;;;;;20997749;28;20124;-77
2022/10/06 10:14:20;;;;;;;5.72;4.38;;;16.00;99.90;;;;;;21020343;28;20139;-76
2022/10/06 10:24:41;;;;;;;7.70;3.57;;;16.40;99.90;;;;;;21077506;28;20055;-76
2022/10/06 10:34:48;;;;;;;9.13;3.63;;;17.80;99.90;;;;;;21076883;28;20048;-76
2022/10/06 10:45:15;;;;;;;9.13;3.53;;;18.50;99.90;;;;;;21075645;28;20036;-76
2022/10/06 10:55:30;;;;;;;6.78;2.95;;;19.30;99.90;;;;;;21063963;28;20051;-77
2022/10/06 11:05:46;;;;;;;6.88;3.47;;;18.60;99.90;;;;;;21043086;28;20555;-76
2022/10/06 11:16:05;;;;;;;4.50;3.10;;;18.90;99.90;;;;;;21057829;28;20070;-75
2022/10/06 11:26:07;;;;;;;5.53;2.95;;;19.30;99.90;;;;;;21077986;28;20431;-76
2022/10/06 11:36:14;;;;;;;11.20;2.88;;;19.60;99.90;;;;;;21060863;28;20040;-76
2022/10/06 11:46:39;;;;;;;7.72;2.30;;;19.70;99.90;;;;;;21075448;28;20044;-77
2022/10/06 11:56:40;;;;;;;8.77;2.53;;;20.00;99.90;;;;;;21083502;28;20431;-77
2022/10/06 12:06:41;;;;;;;10.10;2.53;;;20.10;99.90;;;;;;21092235;28;20070;-78
2022/10/06 12:16:45;;;;;;;7.23;2.70;;;20.60;99.90;;;;;;21066175;28;20085;-77
2022/10/06 12:27:04;;;;;;;8.85;2.95;;;20.70;99.90;;;;;;21056421;28;20032;-78
2022/10/06 12:37:38;;;;;;;9.82;2.83;;;20.70;99.90;;;;;;21057921;28;20048;-78
2022/10/06 12:47:42;;;;;;;11.85;3.30;;;20.60;99.90;;;;;;21005668;28;20048;-77
2022/10/06 12:57:48;;;;;;;10.00;4.32;;;20.70;99.90;;;;;;21089012;28;20055;-77
2022/10/06 13:08:00;;;;;;;12.75;3.92;;;20.50;99.90;;;;;;21003309;28;20044;-77
2022/10/06 13:18:06;;;;;;;11.70;3.45;;;19.80;99.90;;;;;;21038344;28;20461;-78
2022/10/06 13:28:26;;;;;;;9.50;3.67;;;20.60;99.90;;;;;;21083058;28;20436;-77
2022/10/06 13:38:30;;;;;;;7.35;3.90;;;19.90;99.90;;;;;;21046553;28;20032;-76
2022/10/06 13:48:31;;;;;;;8.57;3.10;;;19.80;99.90;;;;;;20995752;28;20047;-76
2022/10/06 13:58:32;;;;;;;8.53;3.00;;;19.90;99.90;;;;;;20995307;28;20487;-76
2022/10/06 14:08:33;;;;;;;11.60;2.87;;;20.10;99.90;;;;;;20998424;28;20029;-77
2022/10/06 14:18:38;;;;;;;;;;;20.30;99.90;;;;;;21080909;22;20506;-75
2022/10/06 14:28:45;;;;;;;5.50;2.50;;;19.90;99.90;;;;;;21011682;28;19908;-76
2022/10/06 14:38:47;;;;;;;6.03;2.00;;;19.80;99.90;;;;;;21073842;28;20086;-76
2022/10/06 14:48:48;;;;;;;7.78;1.90;;;20.10;99.90;;;;;;21074437;28;20484;-75
2022/10/06 14:58:49;;;;;;;5.23;1.83;;;19.90;99.90;;;;;;21070716;28;20032;-76
2022/10/06 15:08:56;;;;;;;10.25;1.88;;;20.30;99.90;;;;;;21071707;28;20505;-75
2022/10/06 15:18:58;;;;;;;7.55;1.70;;;20.10;99.90;;;;;;21013172;28;20036;-75
2022/10/06 15:28:59;;;;;;;4.05;1.88;;;20.20;99.90;;;;;;21015501;28;20387;-75
2022/10/06 15:39:08;;;;;;;7.77;2.33;;;19.80;99.90;;;;;;21005539;28;20040;-76
2022/10/06 15:49:14;;;;;;;5.50;1.80;;;19.50;99.90;;;;;;21076779;28;20036;-76
2022/10/06 15:59:16;;;;;;;7.63;2.45;;;18.80;99.90;;;;;;21053588;28;20040;-76
2022/10/06 16:09:17;;;;;;;6.13;2.05;;;18.40;99.90;;;;;;21085942;28;20040;-76
2022/10/06 16:19:19;;;;;;;9.48;2.40;;;18.20;99.90;;;;;;21080619;28;20040;-76
2022/10/06 16:29:20;;;;;;;6.47;2.10;;;18.00;99.90;;;;;;21091097;28;20445;-76
2022/10/06 16:39:22;;;;;;;4.47;2.10;;;17.70;99.90;;;;;;21089297;28;20040;-76
2022/10/06 16:49:23;;;;;;;3.70;1.83;;;17.50;99.90;;;;;;21091603;28;20043;-77
2022/10/06 16:59:28;;;;;;;8.30;2.87;;;17.30;99.90;;;;;;21120865;28;20046;-75
2022/10/06 17:09:29;;;;;;;7.18;2.25;;;17.10;99.90;;;;;;21086553;28;20474;-76
2022/10/06 17:19:29;;;;;;;18.83;2.33;;;16.60;99.90;;;;;;21121990;28;20047;-76
2022/10/06 17:29:30;;;;;;;5.53;2.50;;;16.10;99.90;;;;;;21120425;28;20044;-76
2022/10/06 17:39:31;;;;;;;9.50;2.60;;;15.80;99.90;;;;;;21119131;28;20409;-75
2022/10/06 17:49:33;;;;;;;13.77;3.03;;;16.00;99.90;;;;;;21159542;28;20035;-75
2022/10/06 17:59:34;;;;;;;8.15;2.60;;;15.80;99.90;;;;;;21139443;28;20032;-75
2022/10/06 18:09:35;;;;;;;10.00;2.43;;;15.60;99.90;;;;;;21077284;28;20024;-75
2022/10/06 18:19:37;;;;;;;9.83;2.13;;;15.50;99.90;;;;;;21066618;28;20137;-75
2022/10/06 18:29:38;;;;;;;10.57;2.67;;;15.30;99.90;;;;;;21076002;28;20040;-74
2022/10/06 18:39:40;;;;;;;9.52;1.98;;;15.30;99.90;;;;;;21068500;28;20091;-75
2022/10/06 18:49:41;;;;;;;13.17;2.03;;;15.20;99.90;;;;;;20989577;28;20076;-75
2022/10/06 18:59:41;;;;;;;6.67;2.37;;;15.30;99.90;;;;;;20973132;28;20046;-75
2022/10/06 19:09:42;;;;;;;15.57;2.50;;;15.20;99.90;;;;;;20978180;28;20040;-75
2022/10/06 19:19:49;;;;;;;13.30;2.50;;;15.10;99.90;;;;;;21072934;28;20072;-75
2022/10/06 19:29:52;;;;;;;9.73;2.22;;;14.90;99.90;;;;;;21071323;28;20047;-76
2022/10/06 19:39:53;;;;;;;7.55;2.22;;;15.00;99.90;;;;;;21050566;28;20692;-76
2022/10/06 19:49:56;;;;;;;8.30;2.93;;;14.80;99.90;;;;;;21069151;28;20040;-76
2022/10/06 19:59:57;;;;;;;5.40;2.60;;;14.60;99.90;;;;;;21068035;28;20119;-75
2022/10/06 20:09:57;;;;;;;10.33;2.27;;;14.50;99.90;;;;;;21067340;28;20059;-76
2022/10/06 20:19:59;;;;;;;11.60;2.50;;;14.50;99.90;;;;;;21054139;22;20048;-76
2022/10/06 20:30:00;;;;;;;10.90;2.43;;;14.30;99.90;;;;;;20971660;28;20028;-76
2022/10/06 20:50:20;;;;;;;15.35;3.15;;;13.80;99.90;;;;;;20997054;28;20383;-76
2022/10/06 21:00:20;;;;;;;20.77;3.47;;;13.60;99.90;;;;;;20995997;28;20051;-75
2022/10/06 21:10:21;;;;;;;7.67;2.60;;;13.40;99.90;;;;;;20995577;28;20411;-76
2022/10/06 21:20:22;;;;;;;7.13;2.40;;;13.30;99.90;;;;;;20993664;28;20066;-75
2022/10/06 21:30:23;;;;;;;16.13;3.87;;;13.00;99.90;;;;;;20946825;28;20071;-75
2022/10/06 21:40:24;;;;;;;9.40;2.83;;;13.20;99.90;;;;;;20964566;28;20040;-75
2022/10/06 21:50:25;;;;;;;8.00;3.07;;;12.80;99.90;;;;;;20992167;28;20111;-76
2022/10/06 22:00:26;;;;;;;17.97;3.20;;;12.60;99.90;;;;;;20991047;28;20036;-76
2022/10/06 22:10:26;;;;;;;9.87;4.27;;;12.60;99.90;;;;;;20977497;28;20119;-75
2022/10/06 22:20:33;;;;;;;13.47;4.50;;;12.50;99.90;;;;;;20907192;28;20446;-75
2022/10/06 22:30:33;;;;;;;7.30;3.33;;;12.40;99.90;;;;;;20906125;28;20573;-76
2022/10/06 22:40:34;;;;;;;15.43;3.97;;;12.40;99.90;;;;;;20960783;28;20044;-76
2022/10/06 22:50:35;;;;;;;17.47;4.10;;;12.40;99.90;;;;;;20987892;28;20086;-75
2022/10/06 23:00:36;;;;;;;13.47;5.00;;;12.60;99.90;;;;;;20946062;28;20327;-75
2022/10/06 23:10:36;;;;;;;12.63;3.73;;;12.70;99.90;;;;;;20907660;28;20048;-75
2022/10/06 23:20:37;;;;;;;14.87;3.80;;;12.80;99.90;;;;;;20895271;28;20483;-75
2022/10/06 23:30:38;;;;;;;12.50;4.03;;;12.90;99.90;;;;;;20947065;28;20095;-75
2022/10/06 23:40:39;;;;;;;12.67;3.93;;;13.00;99.90;;;;;;20946123;28;20130;-75
2022/10/06 23:50:40;;;;;;;11.77;3.70;;;13.00;99.90;;;;;;20952072;28;20040;-75
